Time;durP1;ratioP1;P1;durP2;ratioP2;P2;SDS_P1;SDS_P2;PMS_P1;PMS_P2;Temp;Humidity;BMP_temperature;BMP_pressure;BME280_temperature;BME280_humidity;BME280_pressure;Samples;Min_cycle;Max_cycle;Signal;HPM_P1;HPM_P2
2022/12/07 00:00:19;;;;;;;19.63;12.37;;;1.20;99.90;;;;;;5071769;28;20202;-51
2022/12/07 00:02:46;;;;;;;19.47;12.30;;;1.30;99.90;;;;;;5071904;28;20629;-48
2022/12/07 00:05:15;;;;;;;14.83;10.80;;;1.30;99.90;;;;;;5070060;28;20226;-50
2022/12/07 00:07:42;;;;;;;18.63;12.67;;;1.30;99.90;;;;;;5069594;28;20620;-49
2022/12/07 00:10:09;;;;;;;17.07;11.00;;;1.30;99.90;;;;;;5070857;28;20205;-49
2022/12/07 00:12:36;;;;;;;18.43;11.57;;;1.30;99.90;;;;;;5071618;28;20206;-49
2022/12/07 00:15:04;;;;;;;16.90;10.60;;;1.30;99.90;;;;;;5074981;28;20198;-49
2022/12/07 00:17:31;;;;;;;18.20;10.87;;;1.30;99.90;;;;;;5075711;28;20226;-49
2022/12/07 00:19:58;;;;;;;16.03;10.87;;;1.30;99.90;;;;;;5073089;28;20220;-49
2022/12/07 00:22:26;;;;;;;14.20;9.43;;;1.30;99.90;;;;;;5075394;28;20209;-49
2022/12/07 00:24:53;;;;;;;15.97;9.43;;;1.30;99.90;;;;;;5073339;28;20222;-50
2022/12/07 00:27:20;;;;;;;16.07;9.77;;;1.20;99.90;;;;;;5075387;28;20237;-51
2022/12/07 00:29:47;;;;;;;16.73;11.03;;;1.10;99.90;;;;;;5075441;28;20217;-50
2022/12/07 00:32:14;;;;;;;12.73;7.97;;;1.10;99.90;;;;;;5073596;28;20680;-50
2022/12/07 00:34:41;;;;;;;14.30;8.33;;;1.00;99.90;;;;;;5066100;28;20195;-49
2022/12/07 00:37:08;;;;;;;13.07;8.07;;;0.90;99.90;;;;;;5075212;28;20592;-50
2022/12/07 00:39:36;;;;;;;11.07;8.00;;;1.00;99.90;;;;;;5075805;28;20203;-49
2022/12/07 00:42:04;;;;;;;11.60;7.57;;;0.90;99.90;;;;;;5068746;28;20239;-49
2022/12/07 00:44:31;;;;;;;9.03;7.60;;;0.90;99.90;;;;;;5064978;28;20602;-49
2022/12/07 00:46:58;;;;;;;10.90;7.87;;;0.90;99.90;;;;;;5072673;28;20199;-48
2022/12/07 00:49:25;;;;;;;11.80;7.77;;;1.00;99.90;;;;;;5073943;28;20598;-49
2022/12/07 00:51:52;;;;;;;9.30;7.20;;;1.00;99.90;;;;;;5074488;28;20256;-49
2022/12/07 00:54:19;;;;;;;9.77;6.87;;;1.00;99.90;;;;;;5074442;28;20217;-49
2022/12/07 00:56:47;;;;;;;8.33;6.17;;;1.00;99.90;;;;;;5074676;28;20213;-49
2022/12/07 00:59:15;;;;;;;13.60;7.47;;;1.00;99.90;;;;;;5071992;28;20210;-48
2022/12/07 01:01:42;;;;;;;13.40;7.57;;;1.00;99.90;;;;;;5074560;28;20225;-49
2022/12/07 01:04:09;;;;;;;11.70;6.53;;;1.00;99.90;;;;;;5073830;28;20210;-48
2022/12/07 01:06:36;;;;;;;6.70;6.00;;;1.00;99.90;;;;;;5074496;28;20222;-48
2022/12/07 01:09:04;;;;;;;10.23;6.97;;;1.10;99.90;;;;;;5074684;28;20205;-49
2022/12/07 01:11:31;;;;;;;8.67;7.37;;;1.10;99.90;;;;;;5072420;28;20635;-48
2022/12/07 01:14:01;;;;;;;9.23;6.63;;;1.10;99.90;;;;;;5073511;28;20606;-48
2022/12/07 01:16:30;;;;;;;9.67;6.90;;;1.10;99.90;;;;;;5074557;28;20200;-47
2022/12/07 01:18:58;;;;;;;10.00;6.40;;;1.00;99.90;;;;;;5074117;28;20217;-49
2022/12/07 01:21:27;;;;;;;6.33;5.47;;;1.10;99.90;;;;;;5072724;28;20551;-49
2022/12/07 01:23:54;;;;;;;10.83;5.97;;;1.10;99.90;;;;;;5065378;28;20212;-50
2022/12/07 01:26:24;;;;;;;8.27;6.27;;;1.10;99.90;;;;;;5065742;28;20589;-49
2022/12/07 01:28:51;;;;;;;7.30;5.97;;;1.10;99.90;;;;;;5072287;28;20230;-49
2022/12/07 01:31:22;;;;;;;9.00;6.07;;;1.10;99.90;;;;;;5074270;28;20208;-50
2022/12/07 01:33:51;;;;;;;6.40;5.80;;;1.10;99.90;;;;;;5072436;28;20204;-48
2022/12/07 01:36:20;;;;;;;6.57;5.97;;;1.10;99.90;;;;;;5074047;28;20201;-48
2022/12/07 01:38:51;;;;;;;8.00;6.30;;;1.20;99.90;;;;;;5073784;28;20241;-49
2022/12/07 01:41:18;;;;;;;9.10;5.80;;;1.10;99.90;;;;;;5064614;28;20274;-49
2022/12/07 01:44:13;;;;;;;11.67;6.83;;;1.20;99.90;;;;;;5073025;28;20617;-49
2022/12/07 01:46:43;;;;;;;8.63;5.67;;;1.10;99.90;;;;;;5071633;28;20221;-49
2022/12/07 01:49:16;;;;;;;8.30;6.30;;;1.10;99.90;;;;;;5073676;28;20198;-55
2022/12/07 01:51:45;;;;;;;8.10;5.37;;;1.20;99.90;;;;;;5073816;28;20205;-49
2022/12/07 01:54:15;;;;;;;7.70;6.37;;;1.10;99.90;;;;;;5069817;28;20202;-49
2022/12/07 01:56:48;;;;;;;10.20;6.00;;;1.10;99.90;;;;;;5073371;28;20198;-49
2022/12/07 01:59:17;;;;;;;7.70;5.17;;;1.10;99.90;;;;;;5067283;28;20203;-49
2022/12/07 02:01:46;;;;;;;5.80;5.27;;;1.10;99.90;;;;;;5071035;28;20259;-51
2022/12/07 02:04:13;;;;;;;7.43;5.27;;;1.10;99.90;;;;;;5070782;28;20722;-48
2022/12/07 02:06:42;;;;;;;7.60;5.47;;;1.20;99.90;;;;;;5073313;28;20223;-49
2022/12/07 02:09:09;;;;;;;9.17;5.17;;;1.10;99.90;;;;;;5073661;28;20232;-50
2022/12/07 02:11:36;;;;;;;9.13;5.33;;;1.10;99.90;;;;;;5073469;28;20627;-49
2022/12/07 02:14:03;;;;;;;5.97;4.83;;;1.00;99.90;;;;;;5062922;28;20608;-49
2022/12/07 02:16:38;;;;;;;9.20;5.97;;;1.10;99.90;;;;;;5071472;28;20198;-48
2022/12/07 02:19:25;;;;;;;5.67;4.43;;;1.10;99.90;;;;;;5064195;28;20216;-49
2022/12/07 02:21:59;;;;;;;7.57;5.23;;;1.10;99.90;;;;;;5071294;28;20208;-50
2022/12/07 02:24:43;;;;;;;8.80;4.87;;;1.10;99.90;;;;;;5071943;28;20199;-51
2022/12/07 02:27:48;;;;;;;5.53;4.87;;;1.10;99.90;;;;;;5072574;28;20234;-48
2022/12/07 02:30:19;;;;;;;7.37;5.07;;;1.10;99.90;;;;;;5063734;28;20210;-49
2022/12/07 02:32:55;;;;;;;9.93;5.93;;;1.10;99.90;;;;;;5072384;28;20204;-49
2022/12/07 02:35:27;;;;;;;5.87;5.27;;;1.10;99.90;;;;;;5070623;28;20198;-49
2022/12/07 02:38:03;;;;;;;6.83;5.07;;;1.10;99.90;;;;;;5063910;28;20215;-50
2022/12/07 02:40:37;;;;;;;5.93;5.33;;;1.20;99.90;;;;;;5071536;28;20211;-50
2022/12/07 02:43:10;;;;;;;6.80;4.50;;;1.20;99.90;;;;;;5061115;28;20198;-50
2022/12/07 02:45:41;;;;;;;7.13;4.67;;;1.20;99.90;;;;;;5072077;28;20226;-49
2022/12/07 02:48:10;;;;;;;6.87;5.63;;;1.30;99.90;;;;;;5072436;28;20226;-49
2022/12/07 02:50:38;;;;;;;7.10;5.13;;;1.20;99.90;;;;;;5062613;28;20211;-50
2022/12/07 02:53:05;;;;;;;5.03;4.63;;;1.30;99.90;;;;;;5070175;28;20205;-51
2022/12/07 02:55:41;;;;;;;6.30;4.73;;;1.30;99.90;;;;;;5071349;28;20204;-50
2022/12/07 02:58:24;;;;;;;6.47;5.00;;;1.30;99.90;;;;;;5051874;28;20232;-49
2022/12/07 03:01:04;;;;;;;10.53;6.13;;;1.30;99.90;;;;;;5052298;28;20202;-51
2022/12/07 03:03:32;;;;;;;6.87;5.07;;;1.40;99.90;;;;;;5054133;28;20209;-49
2022/12/07 03:06:13;;;;;;;9.40;5.10;;;1.30;99.90;;;;;;5058511;28;20711;-49
2022/12/07 03:08:50;;;;;;;6.37;5.77;;;1.40;99.90;;;;;;5069953;28;20218;-50
2022/12/07 03:11:23;;;;;;;7.03;5.30;;;1.40;99.90;;;;;;5065667;28;20205;-49
2022/12/07 03:13:55;;;;;;;5.80;4.83;;;1.40;99.90;;;;;;5071240;28;20198;-50
2022/12/07 03:16:28;;;;;;;5.33;4.83;;;1.40;99.90;;;;;;5071847;28;20206;-51
2022/12/07 03:18:57;;;;;;;5.30;4.80;;;1.40;99.90;;;;;;5064831;28;20727;-49
2022/12/07 03:21:27;;;;;;;7.13;4.87;;;1.50;99.90;;;;;;5071638;28;20200;-49
2022/12/07 03:23:59;;;;;;;6.30;5.00;;;1.50;99.90;;;;;;5071079;28;20211;-49
2022/12/07 03:26:33;;;;;;;10.27;5.70;;;1.40;99.90;;;;;;5071777;28;20707;-50
2022/12/07 03:29:06;;;;;;;7.80;6.10;;;1.40;99.90;;;;;;5071547;28;20596;-51
2022/12/07 03:31:39;;;;;;;7.90;5.30;;;1.50;99.90;;;;;;5069676;28;20663;-49
2022/12/07 03:34:12;;;;;;;8.90;4.97;;;1.50;99.90;;;;;;5063375;28;20206;-49
2022/12/07 03:36:43;;;;;;;6.87;5.23;;;1.50;99.90;;;;;;5071784;28;20203;-49
2022/12/07 03:39:20;;;;;;;7.13;5.17;;;1.50;99.90;;;;;;5071788;28;20285;-49
2022/12/07 03:41:47;;;;;;;10.17;5.23;;;1.50;99.90;;;;;;5071603;28;20557;-50
2022/12/07 03:44:16;;;;;;;6.20;4.60;;;1.50;99.90;;;;;;5069905;28;20584;-50
2022/12/07 03:46:50;;;;;;;6.47;5.07;;;1.60;99.90;;;;;;5070478;28;20226;-49
2022/12/07 03:49:26;;;;;;;7.27;5.50;;;1.50;99.90;;;;;;5074089;28;20218;-49
2022/12/07 03:52:00;;;;;;;5.70;5.10;;;1.60;99.90;;;;;;5075652;28;20253;-50
2022/12/07 03:57:53;;;;;;;6.17;4.63;;;1.60;99.90;;;;;;5071418;28;20294;-49
2022/12/07 04:00:20;;;;;;;8.27;5.20;;;1.50;99.90;;;;;;5074205;28;20657;-50
2022/12/07 04:02:52;;;;;;;5.23;4.73;;;1.50;99.90;;;;;;5075186;28;20198;-50
2022/12/07 04:05:19;;;;;;;5.87;5.13;;;1.60;99.90;;;;;;5073916;28;20270;-50
2022/12/07 04:07:46;;;;;;;5.60;4.63;;;1.60;99.90;;;;;;5066367;28;20226;-49
2022/12/07 04:10:14;;;;;;;7.13;5.90;;;1.50;99.90;;;;;;5067812;28;20215;-49
2022/12/07 04:12:41;;;;;;;9.00;5.33;;;1.50;99.90;;;;;;5072166;28;20229;-51
2022/12/07 04:15:09;;;;;;;6.03;5.43;;;1.50;99.90;;;;;;5068466;28;20258;-49
2022/12/07 04:17:36;;;;;;;7.17;5.33;;;1.60;99.90;;;;;;5071482;28;20228;-50
2022/12/07 04:20:06;;;;;;;8.47;5.87;;;1.50;99.90;;;;;;5075195;28;20203;-49
2022/12/07 04:22:33;;;;;;;6.83;5.43;;;1.50;99.90;;;;;;5071629;28;20205;-49
2022/12/07 04:25:00;;;;;;;10.17;6.77;;;1.50;99.90;;;;;;5074132;28;20190;-49
2022/12/07 04:27:27;;;;;;;7.47;6.20;;;1.50;99.90;;;;;;5074610;28;20261;-50
2022/12/07 04:29:55;;;;;;;6.80;6.10;;;1.50;99.90;;;;;;5065472;28;20669;-49
2022/12/07 04:32:22;;;;;;;7.83;6.00;;;1.50;99.90;;;;;;5074752;28;20286;-50
2022/12/07 04:34:49;;;;;;;7.03;6.27;;;1.50;99.90;;;;;;5071971;28;20256;-49
2022/12/07 04:37:18;;;;;;;6.17;5.57;;;1.50;99.90;;;;;;5074638;28;20218;-49
2022/12/07 04:39:45;;;;;;;10.40;7.00;;;1.50;99.90;;;;;;5074605;28;20677;-49
2022/12/07 04:42:13;;;;;;;11.30;8.10;;;1.60;99.90;;;;;;5073409;28;20293;-50
2022/12/07 04:44:40;;;;;;;7.60;6.37;;;1.50;99.90;;;;;;5065332;28;20564;-49
2022/12/07 04:47:07;;;;;;;7.67;6.13;;;1.50;99.90;;;;;;5071900;28;20918;-49
2022/12/07 04:49:38;;;;;;;8.77;6.70;;;1.50;99.90;;;;;;5066006;28;20226;-50
2022/12/07 04:52:05;;;;;;;8.20;6.73;;;1.50;99.90;;;;;;5074626;28;20207;-49
2022/12/07 04:54:34;;;;;;;8.33;6.23;;;1.60;99.90;;;;;;5073736;28;20256;-49
2022/12/07 04:57:01;;;;;;;11.70;7.67;;;1.60;99.90;;;;;;5069468;28;20216;-50
2022/12/07 04:59:28;;;;;;;9.13;7.23;;;1.60;99.90;;;;;;5067531;28;20626;-51
2022/12/07 05:01:55;;;;;;;8.07;6.33;;;1.60;99.90;;;;;;5073185;28;20248;-49
2022/12/07 05:04:22;;;;;;;8.73;7.37;;;1.60;99.90;;;;;;5073245;28;20273;-51
2022/12/07 05:06:49;;;;;;;9.47;7.73;;;1.60;99.90;;;;;;5073979;28;20265;-50
2022/12/07 05:09:16;;;;;;;12.00;7.30;;;1.60;99.90;;;;;;5086039;28;20207;-48
2022/12/07 05:11:44;;;;;;;7.03;6.17;;;1.60;99.90;;;;;;5068974;28;20286;-49
2022/12/07 05:14:14;;;;;;;7.80;6.87;;;1.50;99.90;;;;;;5073299;28;20267;-50
2022/12/07 05:16:42;;;;;;;10.47;6.87;;;1.60;99.90;;;;;;5074041;28;20622;-50
2022/12/07 05:19:10;;;;;;;9.60;6.53;;;1.60;99.90;;;;;;5074093;28;20208;-49
2022/12/07 05:21:38;;;;;;;8.60;7.33;;;1.60;99.90;;;;;;5073014;28;20621;-49
2022/12/07 05:24:06;;;;;;;8.80;7.83;;;1.60;99.90;;;;;;5072019;28;20194;-50
2022/12/07 05:26:33;;;;;;;10.90;8.63;;;1.50;99.90;;;;;;5064789;28;20241;-50
2022/12/07 05:29:01;;;;;;;15.93;8.77;;;1.50;99.90;;;;;;5073458;28;20634;-49
2022/12/07 05:31:28;;;;;;;10.80;8.50;;;1.50;99.90;;;;;;5073550;28;20264;-49
2022/12/07 05:33:56;;;;;;;10.03;7.37;;;1.50;99.90;;;;;;5073102;28;20202;-49
2022/12/07 05:36:23;;;;;;;11.13;8.00;;;1.50;99.90;;;;;;5073647;28;20215;-52
2022/12/07 05:38:50;;;;;;;10.37;7.77;;;1.50;99.90;;;;;;5070203;28;20773;-49
2022/12/07 05:44:01;;;;;;;7.30;6.53;;;1.40;99.90;;;;;;5049868;28;20194;-49
2022/12/07 05:46:28;;;;;;;8.13;6.43;;;1.40;99.90;;;;;;5073386;28;20577;-49
2022/12/07 05:48:55;;;;;;;12.07;7.23;;;1.40;99.90;;;;;;5073090;28;20708;-50
2022/12/07 05:51:22;;;;;;;8.23;6.43;;;1.40;99.90;;;;;;5073313;28;20210;-50
2022/12/07 05:53:49;;;;;;;9.93;6.70;;;1.40;99.90;;;;;;5068766;28;20245;-49
2022/12/07 05:56:16;;;;;;;7.33;6.63;;;1.40;99.90;;;;;;5066885;28;20199;-49
2022/12/07 06:01:29;;;;;;;10.77;7.10;;;1.40;99.90;;;;;;5063477;28;20202;-49
2022/12/07 06:03:57;;;;;;;9.23;5.97;;;1.40;99.90;;;;;;5069395;28;20260;-49
2022/12/07 06:06:43;;;;;;;12.70;7.43;;;1.40;99.90;;;;;;5070079;28;20712;-51
2022/12/07 06:09:11;;;;;;;10.87;7.40;;;1.40;99.90;;;;;;5072553;28;20283;-50
2022/12/07 06:14:24;;;;;;;7.87;6.90;;;1.50;99.90;;;;;;5072124;28;20200;-51
2022/12/07 06:16:52;;;;;;;10.30;7.93;;;1.50;99.90;;;;;;5070495;28;20200;-50
2022/12/07 06:19:19;;;;;;;9.73;7.93;;;1.50;99.90;;;;;;5072753;28;20202;-49
2022/12/07 06:21:46;;;;;;;8.47;6.97;;;1.40;99.90;;;;;;5072635;28;20204;-50
2022/12/07 06:24:14;;;;;;;10.00;7.33;;;1.50;99.90;;;;;;5071918;28;20202;-49
2022/12/07 06:26:42;;;;;;;13.43;8.93;;;1.50;99.90;;;;;;5072097;28;20234;-49
2022/12/07 06:29:09;;;;;;;13.80;9.70;;;1.50;99.90;;;;;;5071381;28;20264;-50
2022/12/07 06:31:37;;;;;;;14.50;9.33;;;1.50;99.90;;;;;;5069924;28;20695;-52
2022/12/07 06:34:07;;;;;;;13.40;9.33;;;1.50;99.90;;;;;;5071862;28;20573;-51
2022/12/07 06:36:34;;;;;;;13.50;9.60;;;1.50;99.90;;;;;;5070418;28;20206;-51
2022/12/07 06:39:02;;;;;;;18.93;12.33;;;1.50;99.90;;;;;;5065748;28;20230;-50
2022/12/07 06:41:29;;;;;;;17.83;12.97;;;1.50;99.90;;;;;;5070136;28;20204;-49
2022/12/07 06:43:56;;;;;;;15.07;10.90;;;1.50;99.90;;;;;;5070802;28;20285;-49
2022/12/07 06:46:23;;;;;;;14.20;11.90;;;1.60;99.90;;;;;;5072228;28;20222;-49
2022/12/07 06:48:51;;;;;;;23.07;13.77;;;1.70;99.90;;;;;;5072018;28;20214;-49
2022/12/07 06:51:19;;;;;;;22.23;12.93;;;1.60;99.90;;;;;;5072253;28;20264;-49
2022/12/07 06:53:46;;;;;;;21.13;12.67;;;1.60;99.90;;;;;;5071325;28;20210;-48
2022/12/07 06:56:13;;;;;;;20.43;13.23;;;1.70;99.90;;;;;;5071143;28;20260;-50
2022/12/07 06:58:41;;;;;;;19.70;12.77;;;1.70;99.90;;;;;;5072184;28;20226;-49
2022/12/07 07:01:11;;;;;;;21.80;14.93;;;1.70;99.90;;;;;;5071823;28;20198;-49
2022/12/07 07:03:38;;;;;;;23.30;12.57;;;1.70;99.90;;;;;;5068842;28;20243;-49
2022/12/07 07:06:07;;;;;;;20.17;14.90;;;1.70;99.90;;;;;;5058928;28;20832;-49
2022/12/07 07:08:36;;;;;;;18.07;12.80;;;1.70;99.90;;;;;;5067794;28;20215;-49
2022/12/07 07:11:03;;;;;;;18.23;12.97;;;1.70;99.90;;;;;;5071894;28;20257;-49
2022/12/07 07:13:30;;;;;;;15.33;11.23;;;1.70;99.90;;;;;;5069321;28;20311;-50
2022/12/07 07:15:57;;;;;;;14.43;11.37;;;1.60;99.90;;;;;;5071365;28;20203;-49
2022/12/07 07:18:24;;;;;;;15.30;11.80;;;1.60;99.90;;;;;;5068473;28;20211;-51
2022/12/07 07:20:51;;;;;;;16.00;12.00;;;1.60;99.90;;;;;;5069526;28;20206;-49
2022/12/07 07:23:18;;;;;;;16.50;10.47;;;1.70;99.90;;;;;;5068654;28;20630;-49
2022/12/07 07:25:47;;;;;;;15.03;11.27;;;1.70;99.90;;;;;;5057334;28;20623;-50
2022/12/07 07:28:14;;;;;;;18.20;10.90;;;1.60;99.90;;;;;;5069663;28;20696;-51
2022/12/07 07:30:41;;;;;;;19.40;12.13;;;1.70;99.90;;;;;;5062036;28;20687;-48
2022/12/07 07:33:10;;;;;;;21.83;12.53;;;1.70;99.90;;;;;;5061015;28;20248;-50
2022/12/07 07:35:37;;;;;;;17.03;12.17;;;1.70;99.90;;;;;;5069683;28;20210;-49
2022/12/07 07:38:04;;;;;;;18.57;12.10;;;1.70;99.90;;;;;;5071209;28;20272;-49
2022/12/07 07:40:31;;;;;;;16.07;11.87;;;1.70;99.90;;;;;;5071503;28;20228;-49
2022/12/07 07:43:00;;;;;;;15.90;11.67;;;1.50;99.90;;;;;;5071109;28;20267;-47
2022/12/07 07:45:28;;;;;;;16.57;11.93;;;1.50;99.90;;;;;;5068590;28;20631;-48
2022/12/07 07:47:55;;;;;;;20.03;12.83;;;1.50;99.90;;;;;;5064222;28;20226;-48
2022/12/07 07:50:23;;;;;;;19.00;11.13;;;1.50;99.90;;;;;;5071468;28;20204;-51
2022/12/07 07:52:50;;;;;;;20.27;12.60;;;1.50;99.90;;;;;;5071196;28;20216;-49
2022/12/07 07:55:17;;;;;;;21.83;12.53;;;1.50;99.90;;;;;;5070713;28;20210;-50
2022/12/07 07:57:44;;;;;;;23.73;13.80;;;1.50;99.90;;;;;;5071182;28;20218;-49
2022/12/07 08:00:15;;;;;;;17.63;12.87;;;1.60;99.90;;;;;;5071139;28;20202;-51
2022/12/07 08:02:43;;;;;;;19.90;14.27;;;1.50;99.90;;;;;;5070492;28;20231;-49
2022/12/07 08:05:12;;;;;;;18.77;12.77;;;1.60;99.90;;;;;;5070433;28;20244;-49
2022/12/07 08:07:39;;;;;;;18.97;14.33;;;1.60;99.90;;;;;;5072150;28;20226;-49
2022/12/07 08:10:08;;;;;;;20.03;13.30;;;1.60;99.90;;;;;;5069853;28;20199;-50
2022/12/07 08:13:10;;;;;;;16.67;11.97;;;1.60;99.90;;;;;;5068325;28;20209;-49
2022/12/07 08:15:28;;;;;;;16.90;11.97;;;1.70;99.90;;;;;;5063881;28;20199;-50
2022/12/07 08:17:55;;;;;;;15.90;12.47;;;1.70;99.90;;;;;;5070663;28;20226;-49
2022/12/07 08:20:22;;;;;;;18.00;10.83;;;1.70;99.90;;;;;;5069787;28;20795;-49
2022/12/07 08:22:49;;;;;;;15.07;11.03;;;1.70;99.90;;;;;;5070085;28;20200;-49
2022/12/07 08:25:16;;;;;;;18.83;11.57;;;1.70;99.90;;;;;;5070326;28;20615;-48
2022/12/07 08:27:43;;;;;;;16.73;11.83;;;1.70;99.90;;;;;;5070830;28;20593;-48
2022/12/07 08:30:11;;;;;;;16.93;11.73;;;1.70;99.90;;;;;;5072190;28;20202;-50
2022/12/07 08:32:39;;;;;;;19.27;11.70;;;1.60;99.90;;;;;;5070772;28;20214;-48
2022/12/07 08:35:07;;;;;;;19.80;11.30;;;1.70;99.90;;;;;;5070805;28;20198;-48
2022/12/07 08:37:34;;;;;;;13.37;10.43;;;1.70;99.90;;;;;;5063670;28;20219;-49
2022/12/07 08:40:01;;;;;;;19.97;11.80;;;1.70;99.90;;;;;;5074489;28;20229;-49
2022/12/07 08:42:29;;;;;;;13.87;10.47;;;1.70;99.90;;;;;;5074339;28;20260;-49
2022/12/07 08:44:57;;;;;;;16.87;11.47;;;1.70;99.90;;;;;;5073839;28;20288;-49
2022/12/07 08:47:25;;;;;;;16.93;11.23;;;1.80;99.90;;;;;;5074120;28;20221;-49
2022/12/07 08:49:55;;;;;;;15.63;11.47;;;1.80;99.90;;;;;;5069516;28;20263;-49
2022/12/07 08:52:22;;;;;;;11.70;9.83;;;1.70;99.90;;;;;;5063274;28;20214;-49
2022/12/07 08:54:49;;;;;;;15.60;10.80;;;1.70;99.90;;;;;;5071807;28;20213;-49
2022/12/07 08:57:16;;;;;;;14.23;10.03;;;1.70;99.90;;;;;;5074405;28;20712;-49
2022/12/07 08:59:43;;;;;;;13.63;9.73;;;1.70;99.90;;;;;;5074194;28;20206;-53
2022/12/07 09:02:10;;;;;;;12.77;8.70;;;1.70;99.90;;;;;;5073362;28;20202;-49
2022/12/07 09:04:38;;;;;;;16.97;10.30;;;1.70;99.90;;;;;;5073149;28;20210;-49
2022/12/07 09:07:06;;;;;;;13.03;9.83;;;1.80;99.90;;;;;;5068265;28;20224;-49
2022/12/07 09:09:33;;;;;;;14.73;9.53;;;1.80;99.90;;;;;;5070192;28;20738;-49
2022/12/07 09:12:00;;;;;;;12.10;9.20;;;1.90;99.90;;;;;;5074064;28;20272;-49
2022/12/07 09:14:27;;;;;;;14.40;9.23;;;1.90;99.90;;;;;;5071572;28;20704;-49
2022/12/07 09:16:54;;;;;;;12.30;9.13;;;1.90;99.90;;;;;;5073604;28;20606;-49
2022/12/07 09:19:22;;;;;;;13.33;9.43;;;1.90;99.90;;;;;;5071554;28;20203;-49
2022/12/07 09:21:48;;;;;;;12.30;8.83;;;1.90;99.90;;;;;;5065171;28;20272;-49
2022/12/07 09:24:17;;;;;;;10.37;7.57;;;2.00;99.90;;;;;;5072544;28;20202;-48
2022/12/07 09:26:44;;;;;;;11.13;7.60;;;1.90;99.90;;;;;;5072062;28;20195;-48
2022/12/07 09:29:11;;;;;;;9.40;7.97;;;1.90;99.90;;;;;;5067897;28;20212;-48
2022/12/07 09:31:38;;;;;;;10.00;7.17;;;1.90;99.90;;;;;;5061609;28;20264;-48
2022/12/07 09:34:06;;;;;;;11.90;8.17;;;2.00;99.90;;;;;;5073090;28;20198;-49
2022/12/07 09:36:33;;;;;;;12.47;8.77;;;2.00;99.90;;;;;;5073540;28;20202;-48
2022/12/07 09:39:00;;;;;;;12.43;8.70;;;2.10;99.90;;;;;;5073585;28;20272;-49
2022/12/07 09:41:31;;;;;;;11.70;8.70;;;2.20;99.90;;;;;;5073499;28;20695;-49
2022/12/07 09:44:04;;;;;;;13.60;9.60;;;2.30;99.90;;;;;;5070672;28;20664;-48
2022/12/07 09:46:37;;;;;;;9.17;7.27;;;2.30;99.90;;;;;;5066427;28;20199;-48
2022/12/07 09:49:05;;;;;;;12.60;7.33;;;2.30;99.90;;;;;;5052234;28;20315;-50
2022/12/07 09:51:32;;;;;;;12.90;7.97;;;2.30;99.90;;;;;;5053424;28;20203;-49
2022/12/07 09:54:01;;;;;;;9.47;7.27;;;2.40;99.90;;;;;;5052050;28;20209;-49
2022/12/07 09:56:31;;;;;;;8.73;6.50;;;2.30;99.90;;;;;;5053501;28;20294;-50
2022/12/07 09:59:01;;;;;;;12.50;7.53;;;2.20;99.90;;;;;;5062117;28;20216;-48
2022/12/07 10:01:32;;;;;;;9.93;7.37;;;2.20;99.90;;;;;;5064909;28;20209;-49
2022/12/07 10:04:12;;;;;;;8.83;6.70;;;2.30;99.90;;;;;;5072305;28;20748;-49
2022/12/07 10:06:40;;;;;;;10.60;6.13;;;2.30;99.90;;;;;;5073187;28;20214;-48
2022/12/07 10:09:11;;;;;;;9.83;6.90;;;2.20;99.90;;;;;;5073008;28;20231;-49
2022/12/07 10:12:02;;;;;;;11.83;7.73;;;2.30;99.90;;;;;;5072937;28;20622;-49
2022/12/07 10:14:31;;;;;;;9.57;6.87;;;2.30;99.90;;;;;;5071400;28;20282;-49
2022/12/07 10:16:59;;;;;;;11.90;7.00;;;2.30;99.90;;;;;;5064258;28;20205;-48
2022/12/07 10:19:28;;;;;;;9.33;6.93;;;2.30;99.90;;;;;;5072837;28;20202;-49
2022/12/07 10:22:10;;;;;;;10.17;6.10;;;2.40;99.90;;;;;;5072710;28;20206;-49
2022/12/07 10:24:42;;;;;;;10.27;6.33;;;2.40;99.90;;;;;;5052544;28;20270;-49
2022/12/07 10:27:21;;;;;;;10.07;5.77;;;2.40;99.90;;;;;;5062976;28;20281;-49
2022/12/07 10:29:51;;;;;;;8.90;6.13;;;2.30;99.90;;;;;;5070116;28;20207;-49
2022/12/07 10:32:33;;;;;;;9.40;6.57;;;2.40;99.90;;;;;;5072446;28;20199;-49
2022/12/07 10:35:20;;;;;;;11.43;7.60;;;2.40;99.90;;;;;;5071908;28;20202;-49
2022/12/07 10:37:47;;;;;;;8.37;6.30;;;2.40;99.90;;;;;;5072088;28;20891;-49
2022/12/07 10:40:28;;;;;;;9.13;7.13;;;2.40;99.90;;;;;;5072657;28;20256;-49
2022/12/07 10:43:18;;;;;;;12.90;7.23;;;2.40;99.90;;;;;;5068946;28;20263;-49
2022/12/07 10:46:18;;;;;;;9.80;6.70;;;2.40;99.90;;;;;;5070152;28;20606;-49
2022/12/07 10:48:58;;;;;;;8.63;7.53;;;2.60;99.90;;;;;;5052209;28;20633;-51
2022/12/07 10:51:32;;;;;;;12.93;8.13;;;2.60;99.90;;;;;;5052480;28;20554;-49
2022/12/07 10:54:10;;;;;;;10.53;8.33;;;2.70;99.90;;;;;;5057312;28;20629;-49
2022/12/07 10:56:53;;;;;;;13.60;8.53;;;2.70;99.90;;;;;;5072350;28;20263;-49
2022/12/07 10:59:54;;;;;;;12.77;8.63;;;2.60;99.90;;;;;;5071072;28;20257;-49
2022/12/07 11:02:41;;;;;;;13.77;9.40;;;2.60;99.90;;;;;;5066525;28;20676;-49
2022/12/07 11:05:18;;;;;;;13.07;9.07;;;2.70;99.90;;;;;;5071636;28;20208;-49
2022/12/07 11:07:54;;;;;;;13.13;8.80;;;2.60;99.90;;;;;;5071860;28;20600;-49
2022/12/07 11:10:27;;;;;;;17.10;9.67;;;2.70;99.90;;;;;;5071900;28;20263;-48
2022/12/07 11:13:15;;;;;;;11.23;7.97;;;2.70;99.90;;;;;;5050155;28;20290;-49
2022/12/07 11:15:56;;;;;;;11.23;8.90;;;2.80;99.90;;;;;;5055833;28;20236;-48
2022/12/07 11:18:28;;;;;;;11.47;9.00;;;2.80;99.90;;;;;;5071565;28;20699;-49
2022/12/07 11:21:07;;;;;;;14.77;10.10;;;2.80;99.90;;;;;;5071905;28;20248;-48
2022/12/07 11:23:49;;;;;;;13.83;9.03;;;2.80;99.90;;;;;;5071178;28;20247;-49
2022/12/07 11:26:32;;;;;;;13.97;9.17;;;2.90;99.90;;;;;;5072157;28;20699;-49
2022/12/07 11:29:15;;;;;;;11.23;9.23;;;2.90;99.90;;;;;;5071442;28;20285;-50
2022/12/07 11:31:59;;;;;;;12.80;9.53;;;3.00;99.90;;;;;;5070395;28;20203;-48
2022/12/07 11:34:36;;;;;;;19.77;10.47;;;3.00;99.90;;;;;;5066192;28;20199;-49
2022/12/07 11:37:12;;;;;;;18.90;10.73;;;3.00;99.90;;;;;;5061705;28;20214;-48
2022/12/07 11:39:45;;;;;;;16.10;9.60;;;3.00;99.90;;;;;;5074730;28;20206;-48
2022/12/07 11:42:17;;;;;;;17.57;10.03;;;3.10;99.90;;;;;;5071910;28;20264;-49
2022/12/07 11:44:53;;;;;;;12.13;9.23;;;3.10;99.90;;;;;;5070671;28;20210;-49
2022/12/07 11:47:29;;;;;;;11.43;9.83;;;3.10;99.90;;;;;;5071388;28;20735;-49
2022/12/07 11:50:02;;;;;;;18.73;10.63;;;3.20;99.90;;;;;;5066602;28;20570;-49
2022/12/07 11:52:41;;;;;;;16.17;10.27;;;3.20;99.90;;;;;;5067282;28;20207;-49
2022/12/07 11:55:19;;;;;;;14.40;9.07;;;3.20;99.90;;;;;;5070909;28;20218;-48
2022/12/07 11:57:52;;;;;;;14.17;9.10;;;3.30;99.90;;;;;;5071474;28;20715;-49
2022/12/07 12:00:20;;;;;;;12.07;9.40;;;3.40;99.90;;;;;;5071435;28;20207;-49
2022/12/07 12:02:54;;;;;;;14.17;10.10;;;3.40;99.90;;;;;;5071410;28;20265;-48
2022/12/07 12:05:23;;;;;;;11.90;8.97;;;3.40;99.90;;;;;;5069959;28;20266;-49
2022/12/07 12:08:00;;;;;;;14.77;9.53;;;3.40;99.90;;;;;;5071194;28;20218;-49
2022/12/07 12:10:39;;;;;;;14.03;9.50;;;3.30;99.90;;;;;;5073994;28;20249;-50
2022/12/07 12:13:36;;;;;;;13.93;9.87;;;3.40;99.90;;;;;;5072888;28;20256;-49
2022/12/07 12:16:20;;;;;;;14.17;9.27;;;3.30;99.90;;;;;;5075212;28;20208;-49
2022/12/07 12:19:03;;;;;;;14.97;9.00;;;3.40;99.90;;;;;;5074869;28;20838;-49
2022/12/07 12:21:32;;;;;;;12.33;8.43;;;3.40;99.90;;;;;;5074295;28;20249;-49
2022/12/07 12:24:03;;;;;;;13.67;8.33;;;3.40;99.90;;;;;;5074185;28;20203;-49
2022/12/07 12:26:33;;;;;;;19.17;8.80;;;3.40;99.90;;;;;;5074934;28;20218;-48
2022/12/07 12:29:03;;;;;;;13.37;9.50;;;3.50;99.90;;;;;;5074627;28;20289;-48
2022/12/07 12:31:36;;;;;;;16.73;10.53;;;3.60;99.90;;;;;;5075069;28;20253;-48
2022/12/07 12:34:21;;;;;;;17.13;8.67;;;3.70;99.90;;;;;;5074232;28;20230;-49
2022/12/07 12:36:48;;;;;;;13.43;9.70;;;3.80;99.90;;;;;;5074461;28;20387;-49
2022/12/07 12:39:18;;;;;;;15.23;9.13;;;3.80;99.90;;;;;;5068265;28;20200;-49
2022/12/07 12:42:08;;;;;;;16.10;10.03;;;3.70;99.90;;;;;;5072738;28;20204;-48
2022/12/07 12:45:00;;;;;;;16.87;11.00;;;3.90;99.90;;;;;;5074009;28;20289;-49
2022/12/07 12:47:54;;;;;;;18.63;10.83;;;3.90;99.90;;;;;;5074629;28;20265;-50
2022/12/07 12:50:25;;;;;;;18.40;12.00;;;3.90;99.90;;;;;;5074845;28;20206;-49
2022/12/07 12:53:12;;;;;;;16.93;10.47;;;4.00;99.90;;;;;;5074453;28;20212;-48
2022/12/07 12:56:22;;;;;;;18.17;11.33;;;4.00;99.90;;;;;;5071989;28;20668;-49
2022/12/07 12:58:49;;;;;;;24.53;11.97;;;4.00;99.90;;;;;;5072746;28;20211;-49
2022/12/07 13:01:41;;;;;;;24.27;14.23;;;3.90;99.90;;;;;;5074649;28;20618;-49
2022/12/07 13:04:44;;;;;;;20.97;13.07;;;4.00;99.90;;;;;;5073797;28;20268;-50
2022/12/07 13:07:52;;;;;;;19.00;12.47;;;3.80;99.90;;;;;;5063771;28;20280;-48
2022/12/07 13:10:28;;;;;;;21.00;14.10;;;3.80;99.90;;;;;;5071860;28;20698;-48
2022/12/07 13:12:58;;;;;;;23.00;14.47;;;3.80;99.90;;;;;;5072801;28;20694;-48
2022/12/07 13:15:44;;;;;;;18.97;13.33;;;3.80;99.90;;;;;;5074870;28;20191;-49
2022/12/07 13:18:25;;;;;;;24.47;14.87;;;3.90;99.90;;;;;;5074198;28;20219;-49
2022/12/07 13:20:57;;;;;;;21.60;13.13;;;3.90;99.90;;;;;;5072880;28;20203;-48